createdAt,value
2023-04-19T00:01:17.018Z,11.1
2023-04-19T00:04:17.575Z,11.1
2023-04-19T00:07:17.062Z,11
2023-04-19T00:10:17.020Z,11
2023-04-19T00:13:17.005Z,11
2023-04-19T00:16:17.061Z,11
2023-04-19T00:19:17.284Z,11
2023-04-19T00:22:17.010Z,11
2023-04-19T00:25:17.012Z,11
2023-04-19T00:28:17.028Z,11
2023-04-19T00:31:17.052Z,11
2023-04-19T00:34:17.272Z,11
2023-04-19T00:37:17.011Z,11
2023-04-19T00:40:17.006Z,11
2023-04-19T00:43:17.007Z,11
2023-04-19T00:46:17.064Z,11
2023-04-19T00:49:17.283Z,10.9
2023-04-19T00:52:16.998Z,10.9
2023-04-19T00:55:17.006Z,10.9
2023-04-19T00:58:17.009Z,10.9
2023-04-19T01:01:17.044Z,10.9
2023-04-19T01:04:17.629Z,10.9
2023-04-19T01:07:17.004Z,10.9
2023-04-19T01:10:17.000Z,10.9
2023-04-19T01:13:17.005Z,10.9
2023-04-19T01:16:16.989Z,10.9
2023-04-19T01:19:17.238Z,10.8
2023-04-19T01:22:17.000Z,10.8
2023-04-19T01:25:16.996Z,10.8
2023-04-19T01:28:16.994Z,10.8
2023-04-19T01:31:17.057Z,10.8
2023-04-19T01:34:17.313Z,10.8
2023-04-19T01:37:16.992Z,10.8
2023-04-19T01:40:16.996Z,10.8
2023-04-19T01:43:17.002Z,10.8
2023-04-19T01:46:17.030Z,10.8
2023-04-19T01:49:17.232Z,10.8
2023-04-19T01:52:16.996Z,10.8
2023-04-19T01:55:16.990Z,10.8
2023-04-19T01:58:16.986Z,10.8
2023-04-19T02:01:17.029Z,10.7
2023-04-19T02:04:17.458Z,10.7
2023-04-19T02:07:16.998Z,10.7
2023-04-19T02:10:17.001Z,10.7
2023-04-19T02:13:16.985Z,10.7
2023-04-19T02:19:16.982Z,10.7
2023-04-19T02:22:16.983Z,10.7
2023-04-19T02:25:16.995Z,10.7
2023-04-19T02:28:16.978Z,10.7
2023-04-19T02:31:17.064Z,10.6
2023-04-19T02:34:17.153Z,10.6
2023-04-19T02:37:16.978Z,10.6
2023-04-19T02:40:16.988Z,10.6
2023-04-19T02:43:16.975Z,10.5
2023-04-19T02:46:17.013Z,10.5
2023-04-19T02:49:16.982Z,10.5
2023-04-19T02:52:16.963Z,10.5
2023-04-19T02:55:16.974Z,10.4
2023-04-19T02:58:16.974Z,10.4
2023-04-19T03:04:17.171Z,10.4
2023-04-19T03:07:16.965Z,10.3
2023-04-19T03:13:16.981Z,10.3
2023-04-19T03:16:17.013Z,10.3
2023-04-19T03:19:16.946Z,10.2
2023-04-19T03:22:16.947Z,10.2
2023-04-19T03:25:16.942Z,10.2
2023-04-19T03:28:16.954Z,10.2
2023-04-19T03:31:16.981Z,10.2
2023-04-19T03:34:17.520Z,10.2
2023-04-19T03:37:17.201Z,10.3
2023-04-19T03:40:16.949Z,10.3
2023-04-19T03:43:16.936Z,10.3
2023-04-19T03:46:16.967Z,10.3
2023-04-19T03:49:16.932Z,10.3
2023-04-19T03:52:16.917Z,10.3
2023-04-19T03:55:16.926Z,10.3
2023-04-19T03:58:16.925Z,10.3
2023-04-19T04:01:16.924Z,10.3
2023-04-19T04:04:17.389Z,10.3
2023-04-19T04:07:16.920Z,10.3
2023-04-19T04:10:16.934Z,10.3
2023-04-19T04:13:16.922Z,10.3
2023-04-19T04:16:16.949Z,10.3
2023-04-19T04:19:16.923Z,10.3
2023-04-19T04:22:16.919Z,10.3
2023-04-19T04:28:16.915Z,10.3
2023-04-19T04:31:16.938Z,10.3
2023-04-19T04:34:17.168Z,10.4
2023-04-19T04:37:16.926Z,10.3
2023-04-19T04:40:16.941Z,10.4
2023-04-19T04:43:17.413Z,10.4
2023-04-19T04:49:17.334Z,10.4
2023-04-19T04:52:17.330Z,10.4
2023-04-19T04:55:17.298Z,10.4
2023-04-19T04:58:18.542Z,10.4
2023-04-19T05:04:17.493Z,10.4
2023-04-19T05:07:17.295Z,10.4
2023-04-19T05:10:17.289Z,10.4
2023-04-19T05:13:17.293Z,10.4
2023-04-19T05:16:17.298Z,10.4
2023-04-19T05:19:17.276Z,10.4
2023-04-19T05:22:17.276Z,10.4
2023-04-19T05:25:17.294Z,10.4
2023-04-19T05:28:17.301Z,10.4
2023-04-19T05:34:19.107Z,10.4
2023-04-19T05:37:17.286Z,10.4
2023-04-19T05:40:17.287Z,10.5
2023-04-19T05:46:17.344Z,10.5
2023-04-19T05:49:17.305Z,10.5
2023-04-19T05:52:17.331Z,10.5
2023-04-19T05:55:17.278Z,10.5
2023-04-19T05:58:17.276Z,10.6
2023-04-19T06:01:17.317Z,10.6
2023-04-19T06:04:17.822Z,10.6
2023-04-19T06:07:27.186Z,10.6
2023-04-19T06:10:17.357Z,10.6
2023-04-19T06:13:17.272Z,10.7
2023-04-19T06:16:17.314Z,10.7
2023-04-19T06:19:17.289Z,10.8
2023-04-19T06:22:17.310Z,10.8
2023-04-19T06:25:17.292Z,10.8
2023-04-19T06:28:17.303Z,10.8
2023-04-19T06:31:17.313Z,10.8
2023-04-19T06:34:17.556Z,10.9
2023-04-19T06:37:17.341Z,10.9
2023-04-19T06:40:17.285Z,10.9
2023-04-19T06:43:17.301Z,10.9
2023-04-19T06:46:17.325Z,10.9
2023-04-19T06:49:17.356Z,10.9
2023-04-19T06:52:17.293Z,10.9
2023-04-19T06:58:17.285Z,10.9
2023-04-19T07:01:17.295Z,11
2023-04-19T07:04:17.631Z,11
2023-04-19T07:07:17.287Z,11
2023-04-19T07:13:17.299Z,11
2023-04-19T07:16:17.313Z,11
2023-04-19T07:19:17.346Z,11
2023-04-19T07:22:17.278Z,11.1
2023-04-19T07:25:17.280Z,11.1
2023-04-19T07:28:17.272Z,11.1
2023-04-19T07:31:17.277Z,11.1
2023-04-19T07:34:17.613Z,11.1
2023-04-19T07:37:17.279Z,11.2
2023-04-19T07:40:17.273Z,11.3
2023-04-19T07:43:17.269Z,11.3
2023-04-19T07:46:17.270Z,11.3
2023-04-19T07:49:17.302Z,11.4
2023-04-19T07:52:17.270Z,11.4
2023-04-19T07:55:17.270Z,11.5
2023-04-19T07:58:17.271Z,11.5
2023-04-19T08:01:17.297Z,11.6
2023-04-19T08:04:17.849Z,11.6
2023-04-19T08:07:17.275Z,11.7
2023-04-19T08:10:17.260Z,11.8
2023-04-19T08:13:17.299Z,11.8
2023-04-19T08:16:32.131Z,11.8
2023-04-19T08:19:17.330Z,11.9
2023-04-19T08:22:18.019Z,11.9
2023-04-19T08:25:17.894Z,11.9
2023-04-19T08:28:17.890Z,12
2023-04-19T08:31:17.906Z,12
2023-04-19T08:34:17.885Z,12
2023-04-19T08:37:17.896Z,12.1
2023-04-19T08:40:17.899Z,12.1
2023-04-19T08:43:17.918Z,12.1
2023-04-19T08:46:17.905Z,12.2
2023-04-19T08:49:18.043Z,12.2
2023-04-19T08:52:17.893Z,12.2
2023-04-19T08:55:17.891Z,12.3
2023-04-19T08:58:26.664Z,12.4
2023-04-19T09:04:35.416Z,12.6
2023-04-19T09:10:18.053Z,12.7
2023-04-19T09:13:17.888Z,12.8
2023-04-19T09:16:18.016Z,12.8
2023-04-19T09:19:23.868Z,12.9
2023-04-19T09:22:18.104Z,12.9
2023-04-19T09:25:37.624Z,13
2023-04-19T09:28:17.881Z,13
2023-04-19T09:34:17.877Z,13.1
2023-04-19T09:37:32.898Z,13.2
2023-04-19T09:40:17.866Z,13.2
2023-04-19T09:46:17.888Z,13.3
2023-04-19T09:49:24.894Z,13.4
2023-04-19T09:52:17.864Z,13.5
2023-04-19T09:55:25.770Z,13.6
2023-04-19T09:58:17.858Z,13.7
2023-04-19T10:01:17.936Z,13.8
2023-04-19T10:04:26.161Z,13.9
2023-04-19T10:10:20.610Z,13.9
2023-04-19T10:13:20.387Z,13.9
2023-04-19T10:16:19.878Z,13.9
2023-04-19T10:19:17.849Z,14
2023-04-19T10:22:17.856Z,14
2023-04-19T10:25:17.852Z,14
2023-04-19T10:28:17.847Z,14
2023-04-19T10:31:17.906Z,14
2023-04-19T10:34:17.843Z,14
2023-04-19T10:37:17.853Z,14
2023-04-19T10:40:17.838Z,14
2023-04-19T10:43:17.856Z,13.9
2023-04-19T10:46:17.858Z,13.9
2023-04-19T10:49:18.075Z,13.9
2023-04-19T10:52:17.835Z,14
2023-04-19T10:55:17.839Z,14
2023-04-19T10:58:17.832Z,14
2023-04-19T11:01:17.856Z,14
2023-04-19T11:04:17.886Z,14
2023-04-19T11:07:17.839Z,14
2023-04-19T11:13:17.832Z,14.1
2023-04-19T11:16:19.345Z,14.1
2023-04-19T11:19:18.263Z,14.1
2023-04-19T11:22:17.845Z,14.1
2023-04-19T11:25:17.826Z,14.1
2023-04-19T11:28:17.841Z,14.1
2023-04-19T11:31:17.853Z,14.1
2023-04-19T11:37:17.833Z,14.2
2023-04-19T11:40:17.825Z,14.2
2023-04-19T11:43:17.835Z,14.2
2023-04-19T11:46:17.835Z,14.3
2023-04-19T11:49:17.834Z,14.3
2023-04-19T11:55:17.825Z,14.3
2023-04-19T11:58:17.818Z,14.3
2023-04-19T12:01:17.818Z,14.3
2023-04-19T12:04:17.971Z,14.3
2023-04-19T12:07:17.828Z,14.4
2023-04-19T12:10:17.821Z,14.4
2023-04-19T12:13:17.869Z,14.5
2023-04-19T12:16:17.878Z,14.5
2023-04-19T12:19:18.162Z,14.6
2023-04-19T12:22:17.820Z,14.6
2023-04-19T12:25:17.818Z,14.7
2023-04-19T12:28:17.822Z,14.7
2023-04-19T12:31:17.822Z,14.7
2023-04-19T12:34:17.816Z,14.7
2023-04-19T12:37:17.806Z,14.8
2023-04-19T12:40:17.810Z,14.8
2023-04-19T12:43:17.806Z,14.8
2023-04-19T12:46:17.910Z,14.8
2023-04-19T12:49:17.884Z,14.8
2023-04-19T12:55:17.804Z,14.8
2023-04-19T12:58:17.841Z,14.8
2023-04-19T13:01:17.828Z,14.7
2023-04-19T13:04:18.192Z,14.7
2023-04-19T13:07:17.844Z,14.7
2023-04-19T13:10:17.813Z,14.7
2023-04-19T13:13:17.811Z,14.8
2023-04-19T13:16:17.846Z,14.8
2023-04-19T13:19:17.813Z,14.8
2023-04-19T13:22:17.806Z,14.8
2023-04-19T13:25:17.806Z,14.8
2023-04-19T13:28:17.800Z,14.8
2023-04-19T13:31:17.823Z,14.8
2023-04-19T13:34:17.955Z,14.8
2023-04-19T13:37:17.802Z,14.8
2023-04-19T13:40:19.036Z,14.8
2023-04-19T13:43:17.794Z,14.8
2023-04-19T13:46:17.828Z,14.8
2023-04-19T13:49:17.796Z,14.8
2023-04-19T13:52:17.796Z,14.7
2023-04-19T13:55:17.793Z,14.7
2023-04-19T13:58:17.795Z,14.7
2023-04-19T14:01:17.828Z,14.7
2023-04-19T14:04:18.188Z,14.7
2023-04-19T14:07:17.799Z,14.7
2023-04-19T14:10:17.795Z,14.6
2023-04-19T14:13:17.790Z,14.6
2023-04-19T14:16:17.827Z,14.6
2023-04-19T14:19:17.790Z,14.6
2023-04-19T14:22:17.793Z,14.6
2023-04-19T14:25:17.791Z,14.6
2023-04-19T14:28:17.780Z,14.6
2023-04-19T14:31:17.813Z,14.6
2023-04-19T14:34:17.777Z,14.6
2023-04-19T14:37:17.793Z,14.6
2023-04-19T14:43:17.785Z,14.5
2023-04-19T14:46:17.804Z,14.6
2023-04-19T14:49:17.884Z,14.6
2023-04-19T14:52:17.789Z,14.6
2023-04-19T14:55:17.782Z,14.6
2023-04-19T14:58:17.776Z,14.5
2023-04-19T15:01:17.788Z,14.5
2023-04-19T15:04:18.010Z,14.4
2023-04-19T15:07:17.796Z,14.4
2023-04-19T15:10:17.770Z,14.3
2023-04-19T15:13:17.776Z,14.2
2023-04-19T15:19:17.908Z,14.2
2023-04-19T15:22:17.782Z,14.1
2023-04-19T15:25:17.772Z,14.1
2023-04-19T15:28:17.775Z,14.1
2023-04-19T15:31:17.855Z,14
2023-04-19T15:34:17.761Z,14
2023-04-19T15:37:17.773Z,14
2023-04-19T15:40:17.768Z,13.9
2023-04-19T15:43:17.758Z,13.8
2023-04-19T15:46:17.818Z,13.8
2023-04-19T15:49:17.913Z,13.8
2023-04-19T15:52:17.759Z,13.7
2023-04-19T15:55:17.759Z,13.7
2023-04-19T15:58:17.755Z,13.6
2023-04-19T16:01:19.164Z,13.6
2023-04-19T16:04:18.001Z,13.6
2023-04-19T16:07:17.756Z,13.5
2023-04-19T16:10:17.753Z,13.5
2023-04-19T16:13:17.749Z,13.5
2023-04-19T16:16:17.770Z,13.5
2023-04-19T16:19:17.880Z,13.4
2023-04-19T16:22:17.752Z,13.4
2023-04-19T16:25:17.745Z,13.3
2023-04-19T16:28:17.750Z,13.3
2023-04-19T16:31:17.748Z,13.3
2023-04-19T16:34:17.793Z,13.3
2023-04-19T16:37:17.751Z,13.3
2023-04-19T16:40:17.749Z,13.3
2023-04-19T16:43:17.741Z,13.3
2023-04-19T16:46:17.761Z,13.2
2023-04-19T16:49:17.925Z,13.2
2023-04-19T16:52:17.745Z,13.2
2023-04-19T16:55:17.750Z,13.1
2023-04-19T16:58:17.749Z,13.1
2023-04-19T17:01:17.776Z,13
2023-04-19T17:04:17.947Z,13
2023-04-19T17:07:17.737Z,13
2023-04-19T17:13:17.738Z,12.9
2023-04-19T17:16:17.797Z,12.9
2023-04-19T17:22:17.757Z,12.8
2023-04-19T17:25:17.734Z,12.8
2023-04-19T17:28:17.728Z,12.8
2023-04-19T17:31:17.775Z,12.7
2023-04-19T17:34:17.721Z,12.6
2023-04-19T17:37:17.725Z,12.6
2023-04-19T17:40:17.729Z,12.5
2023-04-19T17:43:17.751Z,12.5
2023-04-19T17:46:17.729Z,12.4
2023-04-19T17:49:17.892Z,12.4
2023-04-19T17:52:17.712Z,12.3
2023-04-19T17:55:17.715Z,12.3
2023-04-19T17:58:17.713Z,12.2
2023-04-19T18:01:17.715Z,12.2
2023-04-19T18:04:18.071Z,12.1
2023-04-19T18:07:17.713Z,12.1
2023-04-19T18:10:17.712Z,12.1
2023-04-19T18:13:17.712Z,12
2023-04-19T18:16:17.724Z,12
2023-04-19T18:19:17.757Z,12
2023-04-19T18:22:17.712Z,11.9
2023-04-19T18:25:17.700Z,11.8
2023-04-19T18:28:17.705Z,11.8
2023-04-19T18:31:17.709Z,11.7
2023-04-19T18:34:17.698Z,11.7
2023-04-19T18:40:17.686Z,11.5
2023-04-19T18:43:17.714Z,11.5
2023-04-19T18:46:17.727Z,11.5
2023-04-19T18:49:17.861Z,11.4
2023-04-19T18:52:17.686Z,11.3
2023-04-19T18:55:17.685Z,11.3
2023-04-19T18:58:17.684Z,11.3
2023-04-19T19:01:17.708Z,11.2
2023-04-19T19:04:33.827Z,11.2
2023-04-19T19:07:33.586Z,11.1
2023-04-19T19:10:21.609Z,11.1
2023-04-19T19:13:17.679Z,11.1
2023-04-19T19:16:19.696Z,11
2023-04-19T19:19:17.824Z,11
2023-04-19T19:22:25.524Z,11
2023-04-19T19:25:17.676Z,10.9
2023-04-19T19:28:17.679Z,10.9
2023-04-19T19:31:17.710Z,10.9
2023-04-19T19:34:25.671Z,10.9
2023-04-19T19:37:17.667Z,10.9
2023-04-19T19:40:20.865Z,10.8
2023-04-19T19:46:17.684Z,10.8
2023-04-19T19:52:17.674Z,10.8
2023-04-19T19:55:17.661Z,10.7
2023-04-19T19:58:35.276Z,10.7
2023-04-19T20:01:17.686Z,10.7
2023-04-19T20:04:17.712Z,10.6
2023-04-19T20:07:33.172Z,10.6
2023-04-19T20:10:17.658Z,10.6
2023-04-19T20:13:17.676Z,10.6
2023-04-19T20:16:17.701Z,10.5
2023-04-19T20:19:17.735Z,10.5
2023-04-19T20:22:17.659Z,10.5
2023-04-19T20:25:17.648Z,10.4
2023-04-19T20:28:17.653Z,10.4
2023-04-19T20:31:17.654Z,10.4
2023-04-19T20:34:17.632Z,10.3
2023-04-19T20:37:17.654Z,10.3
2023-04-19T20:40:17.632Z,10.3
2023-04-19T20:43:17.660Z,10.2
2023-04-19T20:46:17.682Z,10.2
2023-04-19T20:49:17.768Z,10.1
2023-04-19T20:52:17.637Z,10.1
2023-04-19T20:55:17.633Z,10
2023-04-19T20:58:17.627Z,10
2023-04-19T21:01:17.739Z,10
2023-04-19T21:04:17.766Z,9.9
2023-04-19T21:07:17.634Z,9.9
2023-04-19T21:10:17.625Z,9.9
2023-04-19T21:13:17.624Z,9.9
2023-04-19T21:16:17.705Z,9.8
2023-04-19T21:19:17.827Z,9.8
2023-04-19T21:22:17.625Z,9.7
2023-04-19T21:25:17.635Z,9.7
2023-04-19T21:28:17.636Z,9.7
2023-04-19T21:31:17.630Z,9.6
2023-04-19T21:34:17.646Z,9.6
2023-04-19T21:37:17.639Z,9.6
2023-04-19T21:40:17.646Z,9.6
2023-04-19T21:43:17.632Z,9.5
2023-04-19T21:46:17.754Z,9.5
2023-04-19T21:52:17.657Z,9.5
2023-04-19T21:55:18.779Z,9.5
2023-04-19T21:58:17.672Z,9.4
2023-04-19T22:01:17.686Z,9.4
2023-04-19T22:04:17.674Z,9.4
2023-04-19T22:07:17.660Z,9.4
2023-04-19T22:10:17.660Z,9.4
2023-04-19T22:13:17.660Z,9.4
2023-04-19T22:16:17.712Z,9.4
2023-04-19T22:19:17.790Z,9.3
2023-04-19T22:22:17.654Z,9.3
2023-04-19T22:28:17.659Z,9.2
2023-04-19T22:31:17.658Z,9.2
2023-04-19T22:34:17.671Z,9.2
2023-04-19T22:37:17.651Z,9.2
2023-04-19T22:40:17.668Z,9.1
2023-04-19T22:43:17.663Z,9.1
2023-04-19T22:46:17.677Z,9.1
2023-04-19T22:49:17.920Z,9
2023-04-19T22:52:17.642Z,9
2023-04-19T22:55:17.652Z,9
2023-04-19T22:58:17.649Z,9
2023-04-19T23:01:17.668Z,9
2023-04-19T23:04:17.665Z,9
2023-04-19T23:07:17.647Z,9
2023-04-19T23:10:17.643Z,9
2023-04-19T23:13:17.653Z,8.9
2023-04-19T23:16:17.724Z,8.9
2023-04-19T23:19:17.846Z,8.9
2023-04-19T23:22:17.660Z,8.8
2023-04-19T23:25:17.640Z,8.8
2023-04-19T23:28:17.640Z,8.8
2023-04-19T23:31:17.659Z,8.8
2023-04-19T23:34:17.632Z,8.7
2023-04-19T23:37:17.634Z,8.7
2023-04-19T23:40:17.634Z,8.7
2023-04-19T23:43:17.631Z,8.6
2023-04-19T23:46:17.634Z,8.6
2023-04-19T23:49:17.831Z,8.6
2023-04-19T23:52:17.634Z,8.6
2023-04-19T23:55:17.627Z,8.6
2023-04-19T23:58:17.624Z,8.6
